createdAt,value
2023-03-22T00:00:12.730Z,16.85
2023-03-22T00:03:16.082Z,17.77
2023-03-22T00:06:21.183Z,16.15
2023-03-22T00:09:24.305Z,14.90
2023-03-22T00:12:27.496Z,14.50
2023-03-22T00:15:30.659Z,14.38
2023-03-22T00:18:33.984Z,15.73
2023-03-22T00:21:38.491Z,16.60
2023-03-22T00:24:41.558Z,14.98
2023-03-22T00:27:45.036Z,17.17
2023-03-22T00:30:55.903Z,15.80
2023-03-22T00:37:03.335Z,15.13
2023-03-22T00:40:08.858Z,15.48
2023-03-22T00:43:12.074Z,14.23
2023-03-22T00:46:16.538Z,15.05
2023-03-22T00:49:19.894Z,16.92
2023-03-22T00:52:24.694Z,13.90
2023-03-22T00:55:28.008Z,18.15
2023-03-22T00:58:31.215Z,17.10
2023-03-22T01:01:34.701Z,15.63
2023-03-22T01:04:40.100Z,16.88
2023-03-22T01:07:44.899Z,20.17
2023-03-22T01:10:49.394Z,12.98
2023-03-22T01:13:52.978Z,15.13
2023-03-22T01:16:57.499Z,17.73
2023-03-22T01:20:01.002Z,14.60
2023-03-22T01:23:06.479Z,15.15
2023-03-22T01:26:09.838Z,16.63
2023-03-22T01:29:13.340Z,15.32
2023-03-22T01:32:16.627Z,17.80
2023-03-22T01:35:20.139Z,16.02
2023-03-22T01:38:24.729Z,14.90
2023-03-22T01:41:34.921Z,16.17
2023-03-22T01:44:46.909Z,19.13
2023-03-22T01:47:55.574Z,19.33
2023-03-22T01:51:07.148Z,15.82
2023-03-22T01:54:22.219Z,16.13
2023-03-22T01:57:27.516Z,16.98
2023-03-22T02:00:32.644Z,17.55
2023-03-22T02:04:09.124Z,12.07
2023-03-22T02:07:25.863Z,12.90
2023-03-22T02:10:31.580Z,13.93
2023-03-22T02:17:27.602Z,17.63
2023-03-22T02:21:04.521Z,9.13
2023-03-22T02:24:39.370Z,14.02
2023-03-22T02:28:10.996Z,15.85
2023-03-22T02:31:31.456Z,15.70
2023-03-22T02:34:52.225Z,17.70
2023-03-22T02:38:33.030Z,14.52
2023-03-22T02:41:46.591Z,13.10
2023-03-22T02:45:00.032Z,13.70
2023-03-22T02:48:09.877Z,12.77
2023-03-22T02:51:18.945Z,17.23
2023-03-22T02:54:28.719Z,18.08
2023-03-22T02:57:37.957Z,15.60
2023-03-22T03:00:42.691Z,17.83
2023-03-22T03:03:50.331Z,13.02
2023-03-22T03:06:56.654Z,13.75
2023-03-22T03:09:59.855Z,16.50
2023-03-22T03:13:04.671Z,13.68
2023-03-22T03:16:09.101Z,15.43
2023-03-22T03:19:19.809Z,14.60
2023-03-22T03:22:38.211Z,15.32
2023-03-22T03:25:48.849Z,17.02
2023-03-22T03:28:58.088Z,15.40
2023-03-22T03:32:08.196Z,17.33
2023-03-22T03:35:23.007Z,15.00
2023-03-22T03:38:29.528Z,16.85
2023-03-22T03:41:33.507Z,15.30
2023-03-22T03:44:39.905Z,15.00
2023-03-22T03:47:44.357Z,20.10
2023-03-22T03:50:50.376Z,13.85
2023-03-22T03:53:53.872Z,13.85
2023-03-22T03:56:58.500Z,14.10
2023-03-22T04:00:04.012Z,17.45
2023-03-22T04:03:25.747Z,14.00
2023-03-22T04:06:47.827Z,16.00
2023-03-22T04:13:03.464Z,13.07
2023-03-22T04:16:09.970Z,18.58
2023-03-22T04:19:14.448Z,14.30
2023-03-22T04:22:18.486Z,12.20
2023-03-22T04:25:22.793Z,15.05
2023-03-22T04:28:34.805Z,16.15
2023-03-22T04:34:14.054Z,13.30
2023-03-22T04:37:27.115Z,16.23
2023-03-22T04:40:47.620Z,16.83
2023-03-22T04:43:57.551Z,12.77
2023-03-22T04:47:00.893Z,14.05
2023-03-22T04:50:06.555Z,13.20
2023-03-22T04:53:14.242Z,14.10
2023-03-22T04:56:20.255Z,18.35
2023-03-22T04:59:26.572Z,15.77
2023-03-22T05:02:29.902Z,16.40
2023-03-22T05:05:34.665Z,15.30
2023-03-22T05:08:39.386Z,17.25
2023-03-22T05:11:43.127Z,15.65
2023-03-22T05:15:06.601Z,17.23
2023-03-22T05:18:14.349Z,15.63
2023-03-22T05:21:22.553Z,15.38
2023-03-22T05:24:31.105Z,17.05
2023-03-22T05:27:35.062Z,12.90
2023-03-22T05:31:11.800Z,15.07
2023-03-22T05:34:21.908Z,15.55
2023-03-22T05:37:27.052Z,13.88
2023-03-22T05:40:33.097Z,15.45
2023-03-22T05:43:36.509Z,16.23
2023-03-22T05:46:40.204Z,19.38
2023-03-22T05:50:02.406Z,21.98
2023-03-22T05:53:08.423Z,17.15
2023-03-22T05:56:30.145Z,13.95
2023-03-22T05:59:41.144Z,16.52
2023-03-22T06:02:49.678Z,16.35
2023-03-22T06:05:54.681Z,18.00
2023-03-22T06:09:16.841Z,18.55
2023-03-22T06:12:24.739Z,18.08
2023-03-22T06:15:37.684Z,20.77
2023-03-22T06:18:43.052Z,17.08
2023-03-22T06:21:49.310Z,18.45
2023-03-22T06:24:55.320Z,14.30
2023-03-22T06:28:08.842Z,17.20
2023-03-22T06:31:14.053Z,15.32
2023-03-22T06:34:37.554Z,17.13
2023-03-22T06:37:44.138Z,13.95
2023-03-22T06:40:48.897Z,13.75
2023-03-22T06:43:52.146Z,14.52
2023-03-22T06:47:16.511Z,15.13
2023-03-22T06:50:48.149Z,12.88
2023-03-22T06:53:55.821Z,17.33
2023-03-22T06:57:00.697Z,12.35
2023-03-22T07:00:05.299Z,15.02
2023-03-22T07:03:08.638Z,18.33
2023-03-22T07:06:18.229Z,12.77
2023-03-22T07:09:26.790Z,11.83
2023-03-22T07:12:35.028Z,11.40
2023-03-22T07:15:44.308Z,11.23
2023-03-22T07:19:09.930Z,14.90
2023-03-22T07:22:13.769Z,11.48
2023-03-22T07:25:18.728Z,11.07
2023-03-22T07:28:25.971Z,10.35
2023-03-22T07:31:31.475Z,12.60
2023-03-22T07:34:43.349Z,10.30
2023-03-22T07:37:53.065Z,16.42
2023-03-22T07:41:02.937Z,12.93
2023-03-22T07:44:24.207Z,9.15
2023-03-22T07:47:48.512Z,9.38
2023-03-22T07:50:57.168Z,9.23
2023-03-22T07:54:02.358Z,10.35
2023-03-22T07:57:06.887Z,10.57
2023-03-22T08:00:17.178Z,10.70
2023-03-22T08:03:26.236Z,8.20
2023-03-22T08:06:36.916Z,8.98
2023-03-22T08:09:40.847Z,7.93
2023-03-22T08:12:44.293Z,5.72
2023-03-22T08:15:58.768Z,8.35
2023-03-22T08:19:02.820Z,7.07
2023-03-22T08:22:08.052Z,5.75
2023-03-22T08:25:33.459Z,4.75
2023-03-22T08:28:43.917Z,6.03
2023-03-22T08:31:48.578Z,4.38
2023-03-22T08:34:52.637Z,5.20
2023-03-22T08:37:56.314Z,5.00
2023-03-22T08:41:04.291Z,5.35
2023-03-22T08:44:07.506Z,5.45
2023-03-22T08:47:13.389Z,4.15
2023-03-22T08:50:18.730Z,4.47
2023-03-22T08:53:28.658Z,4.85
2023-03-22T08:56:48.180Z,4.72
2023-03-22T09:00:12.014Z,3.83
2023-03-22T09:03:25.962Z,3.75
2023-03-22T09:06:29.769Z,3.60
2023-03-22T09:09:32.994Z,5.55
2023-03-22T09:12:36.295Z,3.10
2023-03-22T09:15:39.916Z,6.15
2023-03-22T09:18:59.535Z,8.98
2023-03-22T09:22:02.903Z,2.63
2023-03-22T09:25:15.475Z,2.92
2023-03-22T09:28:21.875Z,9.10
2023-03-22T09:31:25.240Z,3.45
2023-03-22T09:34:42.457Z,4.15
2023-03-22T09:37:45.674Z,4.80
2023-03-22T09:41:00.353Z,3.50
2023-03-22T09:44:10.284Z,2.55
2023-03-22T09:47:17.975Z,4.18
2023-03-22T09:50:24.440Z,2.78
2023-03-22T09:53:30.735Z,4.43
2023-03-22T09:56:34.191Z,2.42
2023-03-22T09:59:45.436Z,1.88
2023-03-22T10:02:56.131Z,3.40
2023-03-22T10:06:05.156Z,3.83
2023-03-22T10:09:13.914Z,3.80
2023-03-22T10:12:22.037Z,30.42
2023-03-22T10:15:29.944Z,2.88
2023-03-22T10:18:36.851Z,3.40
2023-03-22T10:21:42.271Z,2.88
2023-03-22T10:24:49.229Z,3.60
2023-03-22T10:27:53.399Z,2.70
2023-03-22T10:34:21.797Z,2.28
2023-03-22T10:37:32.025Z,2.03
2023-03-22T10:40:37.577Z,2.30
2023-03-22T10:43:42.976Z,4.47
2023-03-22T10:46:47.524Z,4.32
2023-03-22T10:49:57.097Z,2.30
2023-03-22T10:53:05.621Z,1.63
2023-03-22T10:56:13.625Z,8.07
2023-03-22T10:59:44.799Z,2.60
2023-03-22T11:02:54.059Z,2.15
2023-03-22T11:06:03.663Z,4.72
2023-03-22T11:09:13.733Z,7.40
2023-03-22T11:12:17.205Z,1.17
2023-03-22T11:15:24.775Z,3.33
2023-03-22T11:18:32.491Z,1.17
2023-03-22T11:21:37.117Z,1.48
2023-03-22T11:24:40.593Z,1.85
2023-03-22T11:27:53.024Z,2.47
2023-03-22T11:31:02.434Z,1.95
2023-03-22T11:34:17.822Z,2.15
2023-03-22T11:37:23.217Z,1.63
2023-03-22T11:40:29.335Z,3.22
2023-03-22T11:43:38.103Z,3.20
2023-03-22T11:46:50.391Z,4.43
2023-03-22T11:49:56.375Z,1.98
2023-03-22T11:53:03.537Z,5.22
2023-03-22T11:56:08.568Z,4.70
2023-03-22T11:59:16.559Z,1.90
2023-03-22T12:02:24.719Z,1.35
2023-03-22T12:05:31.299Z,7.85
2023-03-22T12:08:43.981Z,5.88
2023-03-22T12:11:50.672Z,1.63
2023-03-22T12:14:58.444Z,2.17
2023-03-22T12:18:07.990Z,2.00
2023-03-22T12:21:12.014Z,2.38
2023-03-22T12:24:26.377Z,1.35
2023-03-22T12:30:43.897Z,1.55
2023-03-22T12:33:50.337Z,1.17
2023-03-22T12:36:57.027Z,4.05
2023-03-22T12:40:06.753Z,1.17
2023-03-22T12:43:14.701Z,1.30
2023-03-22T12:46:23.750Z,5.65
2023-03-22T12:49:33.127Z,0.90
2023-03-22T12:52:45.861Z,1.25
2023-03-22T12:55:52.192Z,1.30
2023-03-22T12:59:00.245Z,36.55
2023-03-22T13:02:15.431Z,2.00
2023-03-22T13:05:19.458Z,1.92
2023-03-22T13:08:23.660Z,2.78
2023-03-22T13:11:28.454Z,1.33
2023-03-22T13:14:57.685Z,0.80
2023-03-22T13:18:04.550Z,1.33
2023-03-22T13:21:13.102Z,1.17
2023-03-22T13:24:24.018Z,1.00
2023-03-22T13:27:37.859Z,1.85
2023-03-22T13:30:50.364Z,2.40
2023-03-22T13:33:54.818Z,2.08
2023-03-22T13:36:58.896Z,3.10
2023-03-22T13:40:04.007Z,0.68
2023-03-22T13:43:22.043Z,1.20
2023-03-22T13:46:46.433Z,1.10
2023-03-22T13:49:54.550Z,1.00
2023-03-22T13:53:03.803Z,1.30
2023-03-22T13:56:08.350Z,1.00
2023-03-22T13:59:15.328Z,2.45
2023-03-22T14:02:23.116Z,1.33
2023-03-22T14:05:30.235Z,0.90
2023-03-22T14:08:35.628Z,1.75
2023-03-22T14:11:46.240Z,0.90
2023-03-22T14:14:56.211Z,0.80
2023-03-22T14:18:03.434Z,4.68
2023-03-22T14:21:10.383Z,2.45
